Time;durP1;ratioP1;P1;durP2;ratioP2;P2;SDS_P1;SDS_P2;PMS_P1;PMS_P2;Temp;Humidity;BMP_temperature;BMP_pressure;BME280_temperature;BME280_humidity;BME280_pressure;Samples;Min_cycle;Max_cycle;Signal;HPM_P1;HPM_P2
2022/05/21 00:01:49;;;;;;;8.73;4.03;;;;;;;;;;5055740;28;20028;-41
2022/05/21 00:04:15;;;;;;;5.05;3.45;;;;;;;;;;5055752;28;20484;-46
2022/05/21 00:06:41;;;;;;;6.60;3.58;;;;;;;;;;5056040;28;20029;-42
2022/05/21 00:09:10;;;;;;;7.22;3.45;;;;;;;;;;5055878;28;20453;-41
2022/05/21 00:11:37;;;;;;;6.15;3.05;;;;;;;;;;5055803;28;20067;-41
2022/05/21 00:14:03;;;;;;;8.38;3.30;;;;;;;;;;5055947;28;20100;-41
2022/05/21 00:16:30;;;;;;;6.20;3.40;;;;;;;;;;5055922;28;20465;-41
2022/05/21 00:18:56;;;;;;;6.65;2.83;;;;;;;;;;5055790;28;20066;-41
2022/05/21 00:21:23;;;;;;;4.15;2.83;;;;;;;;;;5055506;28;20025;-41
2022/05/21 00:23:50;;;;;;;8.13;2.88;;;;;;;;;;5055892;28;20025;-41
2022/05/21 00:26:17;;;;;;;6.30;3.05;;;;;;;;;;5055836;28;20499;-41
2022/05/21 00:28:44;;;;;;;10.02;3.13;;;;;;;;;;5055676;28;20025;-40
2022/05/21 00:31:11;;;;;;;3.83;2.55;;;;;;;;;;5055217;28;20021;-41
2022/05/21 00:33:37;;;;;;;5.10;2.45;;;;;;;;;;5055444;28;20029;-39
2022/05/21 00:36:04;;;;;;;6.05;2.83;;;;;;;;;;5055295;28;20032;-41
2022/05/21 00:38:32;;;;;;;8.95;3.38;;;;;;;;;;5055168;28;20461;-41
2022/05/21 00:41:00;;;;;;;5.15;3.40;;;;;;;;;;5055472;28;20049;-42
2022/05/21 00:43:38;;;;;;;7.72;3.22;;;;;;;;;;5055305;28;20025;-42
2022/05/21 00:46:06;;;;;;;4.63;3.30;;;;;;;;;;5055246;28;20063;-41
2022/05/21 00:48:33;;;;;;;4.70;3.08;;;;;;;;;;5055075;28;20500;-41
2022/05/21 00:51:02;;;;;;;5.13;3.17;;;;;;;;;;5054861;28;20400;-41
2022/05/21 00:53:28;;;;;;;8.10;3.60;;;;;;;;;;5055102;28;20033;-40
2022/05/21 00:55:55;;;;;;;9.50;3.47;;;;;;;;;;5054949;28;20028;-41
2022/05/21 01:01:12;;;;;;;6.55;3.30;;;;;;;;;;5055250;28;20032;-40
2022/05/21 01:03:38;;;;;;;3.67;2.60;;;;;;;;;;5054941;28;20017;-46
2022/05/21 01:06:04;;;;;;;69.40;11.57;;;;;;;;;;5055059;28;20025;-55
2022/05/21 01:08:31;;;;;;;156.60;13.32;;;;;;;;;;5054783;28;20049;-51
2022/05/21 01:11:01;;;;;;;8.95;3.22;;;;;;;;;;5054732;28;20080;-50
2022/05/21 01:13:28;;;;;;;5.40;2.90;;;;;;;;;;5054771;28;20147;-51
2022/05/21 01:15:57;;;;;;;4.60;3.45;;;;;;;;;;5054643;28;20431;-53
2022/05/21 01:18:23;;;;;;;11.35;3.35;;;;;;;;;;5054488;28;20017;-53
2022/05/21 01:20:53;;;;;;;6.57;3.35;;;;;;;;;;5054637;28;20078;-52
2022/05/21 01:23:19;;;;;;;5.63;3.28;;;;;;;;;;5054649;28;20461;-52
2022/05/21 01:25:47;;;;;;;9.82;3.00;;;;;;;;;;5054561;28;20032;-52
2022/05/21 01:28:15;;;;;;;7.95;3.22;;;;;;;;;;5054475;28;20079;-51
2022/05/21 01:30:42;;;;;;;5.38;3.17;;;;;;;;;;5054008;28;20028;-52
2022/05/21 01:33:10;;;;;;;10.82;3.78;;;;;;;;;;5054469;28;20519;-52
2022/05/21 01:35:37;;;;;;;4.95;3.10;;;;;;;;;;5054332;28;20025;-53
2022/05/21 01:38:03;;;;;;;5.85;2.97;;;;;;;;;;5054303;28;20476;-52
2022/05/21 01:40:30;;;;;;;9.82;4.13;;;;;;;;;;5054339;28;20032;-53
2022/05/21 01:45:40;;;;;;;10.68;3.53;;;;;;;;;;5054290;28;20032;-53
2022/05/21 01:48:09;;;;;;;6.68;3.58;;;;;;;;;;5054170;28;20025;-53
2022/05/21 01:50:40;;;;;;;12.38;4.10;;;;;;;;;;5053815;28;20023;-52
2022/05/21 01:53:06;;;;;;;8.32;3.85;;;;;;;;;;5054059;28;20036;-53
2022/05/21 01:55:32;;;;;;;40.83;4.15;;;;;;;;;;5053805;28;20033;-52
2022/05/21 01:57:58;;;;;;;8.70;3.10;;;;;;;;;;5053697;28;20036;-52
2022/05/21 02:00:25;;;;;;;12.30;3.15;;;;;;;;;;5053106;28;20057;-52
2022/05/21 02:02:51;;;;;;;7.53;3.10;;;;;;;;;;5053709;28;20049;-53
2022/05/21 02:05:17;;;;;;;8.18;3.70;;;;;;;;;;5054052;28;20017;-52
2022/05/21 02:07:43;;;;;;;9.43;3.63;;;;;;;;;;5053582;28;20060;-52
2022/05/21 02:10:09;;;;;;;9.10;3.75;;;;;;;;;;5052875;28;20432;-52
2022/05/21 02:12:35;;;;;;;5.68;3.38;;;;;;;;;;5053647;28;20041;-52
2022/05/21 02:15:01;;;;;;;9.68;3.40;;;;;;;;;;5053491;28;20033;-52
2022/05/21 02:17:27;;;;;;;7.03;3.67;;;;;;;;;;5053443;28;20036;-52
2022/05/21 02:19:53;;;;;;;9.55;3.47;;;;;;;;;;5053494;28;20063;-51
2022/05/21 02:22:19;;;;;;;12.20;3.60;;;;;;;;;;5053694;28;20064;-52
2022/05/21 02:24:46;;;;;;;8.32;3.58;;;;;;;;;;5053505;28;20028;-52
2022/05/21 02:27:12;;;;;;;13.40;3.53;;;;;;;;;;5053200;28;20032;-52
2022/05/21 02:29:39;;;;;;;5.43;3.17;;;;;;;;;;5053407;28;20024;-52
2022/05/21 02:32:05;;;;;;;5.53;3.42;;;;;;;;;;5053275;28;20029;-52
2022/05/21 02:34:32;;;;;;;13.13;3.65;;;;;;;;;;5053433;28;20520;-52
2022/05/21 02:39:43;;;;;;;7.75;3.85;;;;;;;;;;5053587;28;20098;-51
2022/05/21 02:44:54;;;;;;;6.93;3.83;;;;;;;;;;5053339;28;20102;-52
2022/05/21 02:47:20;;;;;;;10.32;3.70;;;;;;;;;;5053176;28;20043;-52
2022/05/21 02:49:48;;;;;;;6.35;4.25;;;;;;;;;;5053307;28;20110;-54
2022/05/21 02:52:17;;;;;;;12.13;4.70;;;;;;;;;;5052519;28;20037;-54
2022/05/21 02:54:46;;;;;;;10.18;4.50;;;;;;;;;;5053175;28;20469;-51
2022/05/21 02:57:12;;;;;;;46.83;5.05;;;;;;;;;;5034986;28;20059;-46
2022/05/21 02:59:38;;;;;;;32.65;5.50;;;;;;;;;;5052841;28;20029;-45
2022/05/21 03:02:05;;;;;;;171.93;10.40;;;;;;;;;;5053029;28;20059;-46
2022/05/21 03:04:31;;;;;;;37.40;4.90;;;;;;;;;;5053164;28;20014;-47
2022/05/21 03:06:57;;;;;;;47.92;6.20;;;;;;;;;;5053219;28;20021;-47
2022/05/21 03:12:12;;;;;;;28.50;4.10;;;;;;;;;;5053149;28;20546;-50
2022/05/21 03:14:40;;;;;;;7.45;3.53;;;;;;;;;;5053035;28;20022;-47
2022/05/21 03:17:06;;;;;;;10.27;4.45;;;;;;;;;;5052733;28;20055;-50
2022/05/21 03:19:33;;;;;;;14.00;4.70;;;;;;;;;;5052965;28;20029;-49
2022/05/21 03:21:59;;;;;;;7.20;3.95;;;;;;;;;;5056380;28;20052;-49
2022/05/21 03:24:26;;;;;;;19.00;4.18;;;;;;;;;;5056652;28;20112;-40
2022/05/21 03:26:52;;;;;;;36.00;4.85;;;;;;;;;;5056839;28;20037;-39
2022/05/21 03:29:18;;;;;;;8.13;4.18;;;;;;;;;;5056769;28;20021;-39
2022/05/21 03:31:44;;;;;;;9.15;4.00;;;;;;;;;;5056190;28;20061;-39
2022/05/21 03:34:10;;;;;;;28.52;5.38;;;;;;;;;;5056371;28;20401;-39
2022/05/21 03:36:37;;;;;;;12.75;4.15;;;;;;;;;;5056483;28;20113;-40
2022/05/21 03:39:03;;;;;;;10.82;5.70;;;;;;;;;;5056346;28;20028;-41
2022/05/21 03:41:30;;;;;;;24.65;13.35;;;;;;;;;;5056630;28;20355;-39
2022/05/21 03:44:00;;;;;;;187.98;31.95;;;;;;;;;;5055935;28;20025;-41
2022/05/21 03:46:27;;;;;;;27.08;8.50;;;;;;;;;;5056253;28;20362;-40
2022/05/21 03:48:53;;;;;;;38.08;12.15;;;;;;;;;;5056131;28;20029;-41
2022/05/21 03:51:19;;;;;;;22.30;12.50;;;;;;;;;;5056277;28;20544;-41
2022/05/21 03:53:45;;;;;;;19.98;9.85;;;;;;;;;;5056188;28;20045;-40
2022/05/21 03:56:12;;;;;;;13.38;7.85;;;;;;;;;;5056250;28;20427;-42
2022/05/21 03:58:38;;;;;;;20.48;6.85;;;;;;;;;;5056175;28;20044;-44
2022/05/21 04:01:06;;;;;;;26.38;5.53;;;;;;;;;;5056010;28;20032;-41
2022/05/21 04:03:34;;;;;;;18.33;7.47;;;;;;;;;;5056068;28;20082;-42
2022/05/21 04:06:01;;;;;;;14.15;5.30;;;;;;;;;;5056203;28;20089;-42
2022/05/21 04:08:27;;;;;;;17.88;4.50;;;;;;;;;;5054606;28;20435;-41
2022/05/21 04:10:53;;;;;;;15.15;4.50;;;;;;;;;;5055799;28;20128;-42
2022/05/21 04:13:20;;;;;;;14.70;4.40;;;;;;;;;;5055939;28;20033;-42
2022/05/21 04:15:46;;;;;;;17.67;6.53;;;;;;;;;;5055920;28;20037;-42
2022/05/21 04:18:15;;;;;;;21.55;8.70;;;;;;;;;;5055620;28;20060;-41
2022/05/21 04:20:41;;;;;;;33.83;12.60;;;;;;;;;;5055898;28;20503;-42
2022/05/21 04:23:11;;;;;;;38.85;14.23;;;;;;;;;;5055508;28;20083;-42
2022/05/21 04:25:37;;;;;;;42.13;15.10;;;;;;;;;;5055518;28;20020;-42
2022/05/21 04:28:04;;;;;;;38.28;15.60;;;;;;;;;;5055530;28;20087;-39
2022/05/21 04:30:30;;;;;;;34.60;12.75;;;;;;;;;;5055656;28;20027;-41
2022/05/21 04:32:57;;;;;;;29.60;12.50;;;;;;;;;;5054312;28;20032;-41
2022/05/21 04:35:24;;;;;;;31.33;12.07;;;;;;;;;;5055323;28;20049;-42
2022/05/21 04:37:51;;;;;;;19.27;9.57;;;;;;;;;;5055378;28;20366;-42
2022/05/21 04:40:19;;;;;;;20.98;8.55;;;;;;;;;;5055267;28;20028;-42
2022/05/21 04:42:45;;;;;;;19.70;8.35;;;;;;;;;;5055437;28;20051;-41
2022/05/21 04:45:11;;;;;;;17.13;6.80;;;;;;;;;;5055567;28;20025;-42
2022/05/21 04:47:37;;;;;;;13.80;5.90;;;;;;;;;;5055186;28;20024;-42
2022/05/21 04:50:07;;;;;;;10.98;5.63;;;;;;;;;;5055049;28;20036;-42
2022/05/21 04:52:33;;;;;;;12.57;5.18;;;;;;;;;;5054868;28;20477;-44
2022/05/21 04:55:00;;;;;;;8.77;4.68;;;;;;;;;;5055004;28;20111;-42
2022/05/21 04:57:26;;;;;;;13.38;5.32;;;;;;;;;;5055090;28;20029;-42
2022/05/21 04:59:53;;;;;;;11.80;5.10;;;;;;;;;;5054986;28;20051;-42
2022/05/21 05:02:19;;;;;;;12.15;4.75;;;;;;;;;;5054922;28;20083;-42
2022/05/21 05:04:45;;;;;;;11.90;4.32;;;;;;;;;;5054638;28;20025;-42
2022/05/21 05:07:12;;;;;;;11.73;4.43;;;;;;;;;;5054734;28;20473;-42
2022/05/21 05:09:42;;;;;;;8.07;4.53;;;;;;;;;;5054894;28;20111;-42
2022/05/21 05:12:09;;;;;;;9.85;3.85;;;;;;;;;;5054700;28;20037;-46
2022/05/21 05:14:35;;;;;;;14.60;4.60;;;;;;;;;;5054578;28;20025;-42
2022/05/21 05:17:02;;;;;;;13.98;4.47;;;;;;;;;;5054741;28;20029;-42
2022/05/21 05:19:31;;;;;;;9.35;4.82;;;;;;;;;;5054383;28;20052;-42
2022/05/21 05:21:58;;;;;;;8.10;4.13;;;;;;;;;;5054710;28;20029;-40
2022/05/21 05:24:24;;;;;;;10.65;4.10;;;;;;;;;;5054433;28;20040;-40
2022/05/21 05:26:50;;;;;;;4.85;3.85;;;;;;;;;;5054683;28;20024;-40
2022/05/21 05:29:16;;;;;;;8.13;3.95;;;;;;;;;;5054206;28;20032;-40
2022/05/21 05:31:42;;;;;;;7.97;5.15;;;;;;;;;;5054365;28;20077;-40
2022/05/21 05:34:08;;;;;;;12.52;4.10;;;;;;;;;;5054224;28;20128;-40
2022/05/21 05:36:35;;;;;;;7.75;4.20;;;;;;;;;;5054218;28;20021;-44
2022/05/21 05:39:02;;;;;;;10.80;4.28;;;;;;;;;;5054217;28;20473;-41
2022/05/21 05:41:29;;;;;;;11.70;4.80;;;;;;;;;;5054124;28;20032;-40
2022/05/21 05:43:56;;;;;;;6.65;4.25;;;;;;;;;;5053812;28;20489;-44
2022/05/21 05:46:23;;;;;;;10.32;4.25;;;;;;;;;;5054428;28;20033;-40
2022/05/21 05:48:51;;;;;;;8.13;3.80;;;;;;;;;;5053820;28;20033;-40
2022/05/21 05:51:18;;;;;;;10.75;4.72;;;;;;;;;;5054231;28;20027;-40
2022/05/21 05:53:47;;;;;;;6.72;3.90;;;;;;;;;;5053779;28;20075;-41
2022/05/21 05:56:14;;;;;;;5.72;4.50;;;;;;;;;;5054168;28;20032;-41
2022/05/21 06:01:25;;;;;;;10.60;5.38;;;;;;;;;;5054436;28;20067;-41
2022/05/21 06:03:52;;;;;;;11.13;4.43;;;;;;;;;;5053615;28;20028;-41
2022/05/21 06:06:18;;;;;;;10.35;4.95;;;;;;;;;;5053847;28;20025;-40
2022/05/21 06:08:44;;;;;;;7.07;4.47;;;;;;;;;;5053856;28;20642;-45
2022/05/21 06:11:11;;;;;;;8.75;4.00;;;;;;;;;;5053382;28;20045;-42
2022/05/21 06:13:38;;;;;;;12.48;4.50;;;;;;;;;;5053585;28;20060;-41
2022/05/21 06:16:04;;;;;;;9.00;5.70;;;;;;;;;;5053892;28;20025;-41
2022/05/21 06:18:32;;;;;;;7.90;3.80;;;;;;;;;;5053235;28;20029;-41
2022/05/21 06:20:59;;;;;;;7.32;4.10;;;;;;;;;;5053532;28;20032;-41
2022/05/21 06:23:25;;;;;;;7.22;3.72;;;;;;;;;;5053583;28;20032;-44
2022/05/21 06:25:51;;;;;;;8.43;4.07;;;;;;;;;;5053455;28;20100;-41
2022/05/21 06:28:17;;;;;;;6.00;3.90;;;;;;;;;;5053393;28;20037;-41
2022/05/21 06:30:45;;;;;;;9.65;3.63;;;;;;;;;;5053295;28;20043;-40
2022/05/21 06:33:14;;;;;;;11.40;4.25;;;;;;;;;;5053118;28;20072;-40
2022/05/21 06:35:40;;;;;;;9.90;3.80;;;;;;;;;;5053426;28;20017;-40
2022/05/21 06:38:07;;;;;;;6.63;2.90;;;;;;;;;;5053371;28;20468;-41
2022/05/21 06:40:35;;;;;;;6.18;3.10;;;;;;;;;;5053318;28;20053;-41
2022/05/21 06:43:01;;;;;;;5.13;3.00;;;;;;;;;;5053693;28;20021;-43
2022/05/21 06:45:28;;;;;;;10.10;3.78;;;;;;;;;;5053152;28;20484;-41
2022/05/21 06:47:54;;;;;;;24.67;19.60;;;;;;;;;;5053100;28;20470;-42
2022/05/21 06:50:20;;;;;;;9.55;4.53;;;;;;;;;;5053266;28;20033;-41
2022/05/21 06:52:46;;;;;;;5.38;3.13;;;;;;;;;;5053213;28;20048;-41
2022/05/21 06:55:13;;;;;;;9.48;3.13;;;;;;;;;;5054072;28;20017;-40
2022/05/21 06:57:39;;;;;;;7.43;3.03;;;;;;;;;;5057248;28;20025;-43
2022/05/21 07:00:05;;;;;;;6.20;3.30;;;;;;;;;;5057155;28;20025;-43
2022/05/21 07:02:32;;;;;;;6.32;3.53;;;;;;;;;;5057414;28;20021;-42
2022/05/21 07:07:45;;;;;;;166.38;124.55;;;;;;;;;;5057298;28;20052;-41
2022/05/21 07:10:17;;;;;;;81.63;61.75;;;;;;;;;;5056898;28;20068;-41
2022/05/21 07:12:43;;;;;;;15.77;10.63;;;;;;;;;;5055480;28;20183;-43
2022/05/21 07:15:09;;;;;;;12.52;6.47;;;;;;;;;;5056928;28;20028;-42
2022/05/21 07:17:37;;;;;;;7.57;5.10;;;;;;;;;;5056781;28;20597;-41
2022/05/21 07:20:08;;;;;;;5.93;3.40;;;;;;;;;;5056724;28;20587;-45
2022/05/21 07:22:34;;;;;;;34.67;18.15;;;;;;;;;;5056732;28;20059;-44
2022/05/21 07:25:03;;;;;;;117.95;88.45;;;;;;;;;;5056574;28;20025;-41
2022/05/21 07:27:29;;;;;;;28.92;17.80;;;;;;;;;;5055000;28;20378;-41
2022/05/21 07:29:55;;;;;;;62.38;50.88;;;;;;;;;;5056599;28;20029;-40
2022/05/21 07:32:22;;;;;;;66.65;45.95;;;;;;;;;;5056532;28;20115;-40
2022/05/21 07:34:49;;;;;;;77.03;56.85;;;;;;;;;;5056363;28;20496;-44
2022/05/21 07:37:17;;;;;;;92.93;72.07;;;;;;;;;;5056345;28;20024;-41
2022/05/21 07:39:43;;;;;;;36.72;27.25;;;;;;;;;;5056713;28;20040;-40
2022/05/21 07:42:09;;;;;;;13.48;9.13;;;;;;;;;;5056894;28;20044;-42
2022/05/21 07:44:35;;;;;;;26.95;9.13;;;;;;;;;;5056227;28;20036;-40
2022/05/21 07:47:01;;;;;;;15.35;10.20;;;;;;;;;;5056207;28;20029;-40
2022/05/21 07:49:28;;;;;;;28.67;20.88;;;;;;;;;;5056176;28;20032;-41
2022/05/21 07:51:54;;;;;;;14.43;8.60;;;;;;;;;;5056366;28;20047;-40
2022/05/21 07:54:21;;;;;;;7.35;5.50;;;;;;;;;;5056361;28;20380;-41
2022/05/21 07:56:47;;;;;;;10.25;6.07;;;;;;;;;;5055751;28;20223;-40
2022/05/21 07:59:15;;;;;;;11.20;5.32;;;;;;;;;;5055683;28;20486;-43
2022/05/21 08:01:43;;;;;;;15.48;7.35;;;;;;;;;;5055486;28;20511;-40
2022/05/21 08:04:10;;;;;;;17.70;7.05;;;;;;;;;;5055606;28;20046;-41
2022/05/21 08:06:36;;;;;;;18.27;5.28;;;;;;;;;;5055865;28;20460;-40
2022/05/21 08:09:03;;;;;;;13.30;4.38;;;;;;;;;;5056065;28;20035;-41
2022/05/21 08:11:29;;;;;;;9.90;4.35;;;;;;;;;;5055735;28;20048;-41
2022/05/21 08:13:55;;;;;;;9.38;3.33;;;;;;;;;;5055919;28;20496;-41
2022/05/21 08:16:26;;;;;;;11.88;2.78;;;;;;;;;;5055433;28;20485;-40
2022/05/21 08:18:52;;;;;;;6.30;2.40;;;;;;;;;;5056086;28;20033;-40
2022/05/21 08:21:18;;;;;;;9.15;2.50;;;;;;;;;;5055905;28;20059;-41
2022/05/21 08:29:16;;;;;;;8.13;2.10;;;;;;;;;;5055795;28;20040;-41
2022/05/21 08:31:42;;;;;;;83.38;5.95;;;;;;;;;;5055490;28;20036;-40
2022/05/21 08:34:08;;;;;;;17.98;3.50;;;;;;;;;;5055332;28;20037;-40
2022/05/21 08:36:34;;;;;;;44.90;14.30;;;;;;;;;;5055283;28;20021;-40
2022/05/21 08:39:00;;;;;;;23.80;10.32;;;;;;;;;;5053291;28;20117;-40
2022/05/21 08:41:31;;;;;;;51.63;20.00;;;;;;;;;;5054675;28;20028;-39
2022/05/21 08:44:10;;;;;;;13.90;6.22;;;;;;;;;;5048310;28;20024;-40
2022/05/21 08:46:42;;;;;;;13.10;4.63;;;;;;;;;;5049735;28;20346;-40
2022/05/21 08:49:30;;;;;;;13.27;2.78;;;;;;;;;;5050580;28;20028;-40
2022/05/21 08:51:59;;;;;;;11.88;2.33;;;;;;;;;;4980959;28;20473;-40
2022/05/21 08:54:27;;;;;;;9.70;2.30;;;;;;;;;;4980164;28;20064;-43
2022/05/21 08:56:54;;;;;;;7.32;2.40;;;;;;;;;;4980308;28;20026;-42
2022/05/21 08:59:22;;;;;;;5.13;1.90;;;;;;;;;;4980362;28;20073;-41
2022/05/21 09:01:48;;;;;;;14.90;2.40;;;;;;;;;;4980214;28;20536;-41
2022/05/21 09:04:15;;;;;;;8.02;2.40;;;;;;;;;;4981290;28;20042;-40
2022/05/21 09:06:41;;;;;;;10.15;3.28;;;;;;;;;;4980421;28;20027;-40
2022/05/21 09:09:33;;;;;;;23.35;3.78;;;;;;;;;;4980408;28;20034;-41
2022/05/21 09:12:05;;;;;;;8.40;2.75;;;;;;;;;;4972463;28;20601;-42
2022/05/21 09:14:31;;;;;;;10.70;3.58;;;;;;;;;;4981323;28;20247;-41
2022/05/21 09:17:00;;;;;;;14.07;3.03;;;;;;;;;;4979277;28;20034;-41
2022/05/21 09:19:42;;;;;;;6.95;2.50;;;;;;;;;;4980125;28;20086;-43
2022/05/21 09:22:13;;;;;;;11.05;2.90;;;;;;;;;;4981547;28;20444;-45
2022/05/21 09:24:45;;;;;;;7.18;2.50;;;;;;;;;;4981664;28;20386;-43
2022/05/21 09:27:21;;;;;;;6.03;2.78;;;;;;;;;;4981263;28;20027;-44
2022/05/21 09:29:47;;;;;;;9.57;3.05;;;;;;;;;;5033550;28;20040;-44
2022/05/21 09:32:20;;;;;;;9.93;4.50;;;;;;;;;;5048676;28;20426;-45
2022/05/21 09:34:59;;;;;;;9.32;5.15;;;;;;;;;;5047527;28;20028;-43
2022/05/21 09:37:27;;;;;;;44.97;25.77;;;;;;;;;;5047106;28;20021;-45
2022/05/21 09:39:53;;;;;;;45.05;24.67;;;;;;;;;;5046509;28;20032;-43
2022/05/21 09:45:29;;;;;;;11.30;5.82;;;;;;;;;;5047306;28;20161;-42
2022/05/21 09:48:04;;;;;;;11.07;5.60;;;;;;;;;;5047132;28;20025;-43
2022/05/21 09:50:32;;;;;;;23.42;14.68;;;;;;;;;;5047948;28;20048;-43
2022/05/21 09:52:58;;;;;;;21.40;12.40;;;;;;;;;;5047587;28;20032;-42
2022/05/21 09:55:26;;;;;;;45.28;24.95;;;;;;;;;;5047687;28;20132;-44
2022/05/21 09:57:52;;;;;;;35.13;17.92;;;;;;;;;;5047477;28;20520;-43
2022/05/21 10:00:30;;;;;;;41.33;18.60;;;;;;;;;;5047792;28;20630;-43
2022/05/21 10:02:58;;;;;;;23.13;11.43;;;;;;;;;;5047509;28;20439;-43
2022/05/21 10:05:36;;;;;;;26.95;13.45;;;;;;;;;;5047668;28;20060;-43
2022/05/21 10:11:00;;;;;;;41.20;27.25;;;;;;;;;;5046482;28;20056;-41
2022/05/21 10:13:27;;;;;;;47.35;30.48;;;;;;;;;;5047095;28;20157;-43
2022/05/21 10:15:57;;;;;;;23.67;17.58;;;;;;;;;;5047308;28;20021;-41
2022/05/21 10:18:31;;;;;;;26.45;18.88;;;;;;;;;;5047407;28;20433;-44
2022/05/21 10:21:00;;;;;;;18.85;13.77;;;;;;;;;;5044296;28;20596;-42
2022/05/21 10:23:36;;;;;;;20.85;10.23;;;;;;;;;;5047073;28;20404;-42
2022/05/21 10:26:20;;;;;;;21.02;12.80;;;;;;;;;;5047555;28;20472;-43
2022/05/21 10:28:55;;;;;;;23.52;13.43;;;;;;;;;;5046665;28;20105;-44
2022/05/21 10:31:29;;;;;;;25.13;12.32;;;;;;;;;;5046349;28;20419;-44
2022/05/21 10:34:14;;;;;;;23.52;13.00;;;;;;;;;;5046554;28;20079;-43
2022/05/21 10:36:58;;;;;;;21.90;10.90;;;;;;;;;;5047331;28;20083;-42
2022/05/21 10:39:25;;;;;;;20.65;11.30;;;;;;;;;;5047033;28;20024;-43
2022/05/21 10:41:51;;;;;;;19.60;8.75;;;;;;;;;;5046779;28;20091;-42
2022/05/21 10:44:21;;;;;;;18.73;8.80;;;;;;;;;;5047269;28;20132;-41
2022/05/21 10:46:54;;;;;;;21.33;9.10;;;;;;;;;;5046392;28;20331;-42
2022/05/21 10:49:39;;;;;;;15.85;8.45;;;;;;;;;;5045938;28;20436;-43
2022/05/21 10:52:15;;;;;;;12.30;6.13;;;;;;;;;;5046365;28;20060;-43
2022/05/21 10:54:44;;;;;;;9.43;4.05;;;;;;;;;;5046525;28;20051;-42
2022/05/21 10:57:10;;;;;;;10.35;3.60;;;;;;;;;;5047363;28;20516;-43
2022/05/21 10:59:51;;;;;;;8.30;4.68;;;;;;;;;;5046682;28;20035;-42
2022/05/21 11:02:26;;;;;;;57.70;35.90;;;;;;;;;;5046931;28;20017;-42
2022/05/21 11:04:56;;;;;;;73.53;50.70;;;;;;;;;;5046401;28;20485;-42
2022/05/21 11:07:22;;;;;;;57.13;40.70;;;;;;;;;;5046666;28;20134;-43
2022/05/21 11:09:51;;;;;;;39.15;27.08;;;;;;;;;;5046703;28;20025;-43
2022/05/21 11:12:37;;;;;;;38.55;25.52;;;;;;;;;;5045737;28;20547;-43
2022/05/21 11:15:04;;;;;;;23.25;14.20;;;;;;;;;;5045554;28;20029;-42
2022/05/21 11:17:37;;;;;;;26.08;14.50;;;;;;;;;;5047192;28;20036;-42
2022/05/21 11:20:07;;;;;;;15.93;9.73;;;;;;;;;;5045712;28;20650;-43
2022/05/21 11:22:39;;;;;;;13.82;10.52;;;;;;;;;;5045393;28;20041;-43
2022/05/21 11:25:12;;;;;;;12.75;7.68;;;;;;;;;;5045744;28;20020;-42
2022/05/21 11:27:43;;;;;;;8.15;4.75;;;;;;;;;;5045884;28;20112;-42
2022/05/21 11:30:18;;;;;;;9.10;3.25;;;;;;;;;;5046801;28;20072;-42
2022/05/21 11:38:21;;;;;;;5.72;2.83;;;;;;;;;;5046215;28;20125;-43
2022/05/21 11:40:52;;;;;;;4.72;2.55;;;;;;;;;;5045399;28;20482;-42
2022/05/21 11:43:18;;;;;;;8.82;2.88;;;;;;;;;;5049016;28;20025;-44
2022/05/21 11:46:07;;;;;;;3.10;2.30;;;;;;;;;;5050515;28;20037;-42
2022/05/21 11:48:33;;;;;;;6.73;2.07;;;;;;;;;;5049173;28;21264;-44
2022/05/21 11:51:29;;;;;;;4.68;2.05;;;;;;;;;;5050159;28;20078;-42
2022/05/21 11:53:55;;;;;;;10.45;2.50;;;;;;;;;;4946225;28;20063;-42
2022/05/21 11:56:23;;;;;;;5.32;1.70;;;;;;;;;;4946045;28;20578;-42
2022/05/21 11:58:58;;;;;;;7.40;2.10;;;;;;;;;;4946023;28;20516;-43
2022/05/21 12:01:39;;;;;;;5.88;2.10;;;;;;;;;;4946656;28;20176;-43
2022/05/21 12:04:08;;;;;;;4.78;2.05;;;;;;;;;;4946287;28;20046;-44
2022/05/21 12:06:41;;;;;;;2.92;1.83;;;;;;;;;;4946187;28;20023;-43
2022/05/21 12:09:22;;;;;;;6.30;1.45;;;;;;;;;;4946302;28;20031;-43
2022/05/21 12:11:48;;;;;;;7.53;1.88;;;;;;;;;;4944746;28;20310;-43
2022/05/21 12:14:17;;;;;;;4.80;1.73;;;;;;;;;;4945376;28;20094;-42
2022/05/21 12:16:45;;;;;;;6.03;1.95;;;;;;;;;;4945906;28;20571;-43
2022/05/21 12:19:11;;;;;;;3.92;1.80;;;;;;;;;;4945967;28;20686;-43
2022/05/21 12:21:38;;;;;;;3.33;1.98;;;;;;;;;;4945385;28;20027;-42
2022/05/21 12:24:08;;;;;;;6.35;2.08;;;;;;;;;;4945527;28;20562;-45
2022/05/21 12:26:38;;;;;;;7.63;1.90;;;;;;;;;;4945789;28;20023;-43
2022/05/21 12:29:08;;;;;;;7.77;3.60;;;;;;;;;;4946121;28;20042;-41
2022/05/21 12:31:39;;;;;;;9.25;1.75;;;;;;;;;;5047831;28;20041;-41
2022/05/21 12:34:20;;;;;;;6.00;1.98;;;;;;;;;;5048795;28;20614;-43
2022/05/21 12:37:04;;;;;;;24.35;13.85;;;;;;;;;;5048175;28;20086;-42
2022/05/21 12:39:42;;;;;;;102.85;75.38;;;;;;;;;;5048346;28;20016;-42
2022/05/21 12:42:26;;;;;;;35.80;20.33;;;;;;;;;;5049920;28;20029;-44
2022/05/21 12:44:52;;;;;;;28.85;13.45;;;;;;;;;;5049345;28;20048;-41
2022/05/21 12:47:41;;;;;;;89.30;55.38;;;;;;;;;;5049544;28;21176;-41
2022/05/21 12:50:16;;;;;;;43.13;24.30;;;;;;;;;;5048537;28;20044;-45
2022/05/21 12:52:58;;;;;;;86.00;70.15;;;;;;;;;;5048244;28;20025;-41
2022/05/21 12:55:29;;;;;;;29.70;21.38;;;;;;;;;;5049437;28;20036;-42
2022/05/21 12:57:57;;;;;;;25.98;15.10;;;;;;;;;;5049482;28;20021;-42
2022/05/21 13:00:24;;;;;;;86.85;67.32;;;;;;;;;;5049097;28;20027;-44
2022/05/21 13:02:52;;;;;;;39.72;29.90;;;;;;;;;;5047782;28;20503;-40
2022/05/21 13:05:22;;;;;;;38.70;27.42;;;;;;;;;;5047863;28;20492;-43
2022/05/21 13:07:49;;;;;;;28.23;21.45;;;;;;;;;;5048099;28;20033;-40
2022/05/21 13:10:18;;;;;;;24.27;12.82;;;;;;;;;;5048812;28;20052;-40
2022/05/21 13:12:45;;;;;;;13.25;10.60;;;;;;;;;;5048820;28;20032;-42
2022/05/21 13:15:21;;;;;;;10.35;5.53;;;;;;;;;;5030479;28;20773;-40
2022/05/21 13:18:05;;;;;;;41.70;32.08;;;;;;;;;;5047693;28;20074;-48
2022/05/21 13:20:36;;;;;;;21.15;13.50;;;;;;;;;;5047830;28;20462;-48
2022/05/21 13:23:18;;;;;;;6.50;2.83;;;;;;;;;;5047438;28;20037;-49
2022/05/21 13:25:52;;;;;;;37.40;29.48;;;;;;;;;;5048812;28;20384;-49
2022/05/21 13:28:20;;;;;;;4.05;2.28;;;;;;;;;;5048426;28;20116;-49
2022/05/21 13:30:47;;;;;;;33.08;7.88;;;;;;;;;;5047377;28;20249;-51
2022/05/21 13:33:28;;;;;;;8.63;3.80;;;;;;;;;;5048388;28;20036;-52
2022/05/21 13:35:56;;;;;;;64.53;13.68;;;;;;;;;;5074061;28;20020;-53
2022/05/21 13:38:29;;;;;;;27.75;6.47;;;;;;;;;;5074251;28;20016;-52
2022/05/21 13:40:56;;;;;;;22.25;5.93;;;;;;;;;;5074392;28;20033;-52
2022/05/21 13:43:32;;;;;;;20.23;3.65;;;;;;;;;;5074207;28;20383;-52
2022/05/21 13:45:59;;;;;;;6.60;2.45;;;;;;;;;;5074089;28;20016;-53
2022/05/21 13:48:28;;;;;;;9.70;2.92;;;;;;;;;;5073973;28;20437;-52
2022/05/21 13:50:55;;;;;;;10.27;3.50;;;;;;;;;;5073835;28;20499;-52
2022/05/21 13:53:26;;;;;;;6.47;2.38;;;;;;;;;;5074028;28;20404;-52
2022/05/21 13:55:54;;;;;;;7.82;1.95;;;;;;;;;;5073853;28;20025;-51
2022/05/21 13:58:32;;;;;;;5.78;2.15;;;;;;;;;;5074196;28;20029;-52
2022/05/21 14:01:00;;;;;;;5.50;1.48;;;;;;;;;;5073724;28;20066;-53
2022/05/21 14:03:43;;;;;;;4.88;1.80;;;;;;;;;;5073716;28;20425;-52
2022/05/21 14:06:13;;;;;;;3.45;1.52;;;;;;;;;;5073586;28;20433;-51
2022/05/21 14:08:39;;;;;;;3.63;1.23;;;;;;;;;;5073651;28;20024;-51
2022/05/21 14:11:12;;;;;;;6.93;1.60;;;;;;;;;;5073677;28;20048;-53
2022/05/21 14:13:38;;;;;;;4.53;1.40;;;;;;;;;;5073604;28;20037;-52
2022/05/21 14:16:09;;;;;;;1.98;1.33;;;;;;;;;;5073580;28;20012;-53
2022/05/21 14:18:37;;;;;;;4.10;1.65;;;;;;;;;;5073570;28;20029;-51
2022/05/21 14:21:07;;;;;;;3.60;1.30;;;;;;;;;;5073722;28;20025;-51
2022/05/21 14:23:35;;;;;;;8.77;1.00;;;;;;;;;;5073531;28;20028;-53
2022/05/21 14:26:10;;;;;;;10.82;1.70;;;;;;;;;;5073458;28;20016;-52
2022/05/21 14:28:38;;;;;;;4.72;1.23;;;;;;;;;;5073612;28;20053;-53
2022/05/21 14:31:20;;;;;;;2.38;2.00;;;;;;;;;;5073392;28;20029;-53
2022/05/21 14:34:12;;;;;;;9.60;1.10;;;;;;;;;;5073355;28;20373;-50
2022/05/21 14:36:40;;;;;;;4.18;1.00;;;;;;;;;;5029664;28;20046;-52
2022/05/21 14:39:07;;;;;;;3.33;1.00;;;;;;;;;;5032093;28;20029;-50
2022/05/21 14:41:36;;;;;;;4.85;1.00;;;;;;;;;;5033392;28;20061;-53
2022/05/21 14:44:03;;;;;;;6.47;1.60;;;;;;;;;;5033212;28;20034;-52
2022/05/21 14:49:16;;;;;;;1.67;1.10;;;;;;;;;;5033362;28;20497;-52
2022/05/21 14:54:45;;;;;;;7.90;1.45;;;;;;;;;;5031190;28;20053;-53
2022/05/21 14:57:13;;;;;;;3.22;1.15;;;;;;;;;;5031072;28;20037;-53
2022/05/21 14:59:39;;;;;;;1.52;1.00;;;;;;;;;;5031272;28;20038;-52
2022/05/21 15:02:06;;;;;;;6.43;1.08;;;;;;;;;;5030913;28;20040;-51
2022/05/21 15:04:34;;;;;;;3.15;1.10;;;;;;;;;;5031123;28;20519;-52
2022/05/21 15:07:01;;;;;;;3.67;1.20;;;;;;;;;;5031030;28;20489;-52
2022/05/21 15:09:28;;;;;;;4.80;1.30;;;;;;;;;;5031054;28;20083;-52
2022/05/21 15:11:54;;;;;;;4.05;1.70;;;;;;;;;;5030903;28;20494;-50
2022/05/21 15:14:20;;;;;;;5.18;1.38;;;;;;;;;;5031217;28;20072;-50
2022/05/21 15:16:46;;;;;;;2.45;1.42;;;;;;;;;;5032907;28;20120;-50
2022/05/21 15:19:13;;;;;;;5.68;1.48;;;;;;;;;;5034878;28;20064;-51
2022/05/21 15:21:42;;;;;;;3.50;1.23;;;;;;;;;;5034601;28;20064;-51
2022/05/21 15:24:08;;;;;;;5.00;1.20;;;;;;;;;;5034753;28;20112;-51
2022/05/21 15:26:34;;;;;;;8.57;1.58;;;;;;;;;;5034681;28;20021;-52